Time;durP1;ratioP1;P1;durP2;ratioP2;P2;SDS_P1;SDS_P2;PMS_P1;PMS_P2;Temp;Humidity;BMP_temperature;BMP_pressure;BME280_temperature;BME280_humidity;BME280_pressure;Samples;Min_cycle;Max_cycle;Signal;HPM_P1;HPM_P2
2022/02/11 00:08:48;;;;;;;24.98;14.02;;;;;;;;;;5056977;28;20087;-76
2022/02/11 00:11:16;;;;;;;26.58;16.30;;;;;;;;;;5057480;28;20080;-75
2022/02/11 00:13:42;;;;;;;26.50;15.68;;;3.90;99.90;;;;;;5056861;28;20131;-75
2022/02/11 00:16:08;;;;;;;26.27;15.98;;;4.00;99.90;;;;;;5057621;28;20128;-75
2022/02/11 00:18:34;;;;;;;26.17;16.33;;;4.10;99.90;;;;;;5056536;28;20041;-76
2022/02/11 00:20:59;;;;;;;26.27;14.43;;;3.90;99.90;;;;;;5057588;28;20044;-75
2022/02/11 00:23:25;;;;;;;23.23;14.40;;;4.00;99.90;;;;;;5056854;28;20033;-76
2022/02/11 00:25:58;;;;;;;20.67;13.45;;;3.90;99.90;;;;;;5057139;28;20496;-75
2022/02/11 00:33:44;;;;;;;20.67;14.02;;;3.70;99.90;;;;;;5056289;28;20470;-76
2022/02/11 00:36:13;;;;;;;21.70;13.52;;;3.70;99.90;;;;;;5056458;28;20041;-75
2022/02/11 01:03:12;;;;;;;17.20;11.20;;;3.80;99.90;;;;;;5055502;28;20114;-76
2022/02/11 01:05:38;;;;;;;19.98;12.52;;;3.80;99.90;;;;;;5055695;28;20118;-76
2022/02/11 01:08:04;;;;;;;19.75;12.65;;;3.80;99.90;;;;;;5055761;28;20044;-75
2022/02/11 01:10:32;;;;;;;21.00;12.02;;;3.70;99.90;;;;;;5055811;28;20498;-76
2022/02/11 01:12:58;;;;;;;19.00;12.25;;;3.70;99.90;;;;;;5055568;28;20033;-76
2022/02/11 01:15:25;;;;;;;18.10;11.85;;;3.90;99.90;;;;;;5055503;28;20048;-76
2022/02/11 01:17:56;;;;;;;16.35;10.65;;;3.80;99.90;;;;;;5055282;28;20561;-76
2022/02/11 01:21:09;;;;;;;15.48;8.60;;;3.90;99.90;;;;;;5054820;28;20029;-76
2022/02/11 01:23:26;;;;;;;17.63;11.20;;;4.10;99.90;;;;;;5052019;28;20491;-76
2022/02/11 01:52:59;;;;;;;9.88;4.43;;;5.90;99.90;;;;;;5054517;28;20060;-76
2022/02/11 02:00:59;;;;;;;9.95;4.07;;;6.30;99.90;;;;;;5054632;28;20025;-75
2022/02/11 02:04:17;;;;;;;10.18;3.80;;;6.70;99.90;;;;;;5054139;28;20396;-76
2022/02/11 02:08:42;;;;;;;10.82;3.38;;;7.00;99.90;;;;;;5053612;28;20472;-76
2022/02/11 02:22:43;;;;;;;7.57;3.40;;;7.60;99.90;;;;;;5054285;28;20037;-76
2022/02/11 02:25:15;;;;;;;8.55;3.92;;;7.70;99.90;;;;;;5053737;28;20045;-76
2022/02/11 02:27:52;;;;;;;12.98;3.85;;;7.90;99.90;;;;;;5053666;28;20495;-76
2022/02/11 02:57:41;;;;;;;9.80;3.97;;;7.90;99.90;;;;;;5053950;28;20036;-76
2022/02/11 03:48:38;;;;;;;12.45;4.15;;;;;;;;;;5056824;28;20538;-75
2022/02/11 05:00:14;;;;;;;15.18;6.57;;;8.40;99.90;;;;;;5036408;28;20083;-76
2022/02/11 05:02:40;;;;;;;14.45;7.07;;;;;;;;;;5053306;28;20041;-76
2022/02/11 05:05:08;;;;;;;13.45;6.70;;;8.50;99.90;;;;;;5055880;28;20036;-76
2022/02/11 05:07:35;;;;;;;15.48;6.57;;;8.60;99.90;;;;;;5050943;28;20045;-77
2022/02/11 05:10:02;;;;;;;16.45;6.65;;;;;;;;;;5055450;28;20029;-76
2022/02/11 05:12:28;;;;;;;17.38;7.28;;;8.50;99.90;;;;;;5045550;28;20096;-76
2022/02/11 05:14:54;;;;;;;17.13;6.80;;;8.50;99.90;;;;;;5035619;28;20037;-76
2022/02/11 05:17:21;;;;;;;13.90;6.60;;;;;;;;;;5035724;28;20051;-77
2022/02/11 05:19:47;;;;;;;15.38;7.80;;;8.50;99.90;;;;;;5035292;28;20125;-76
2022/02/11 05:22:12;;;;;;;15.57;6.50;;;8.60;99.90;;;;;;5045878;28;20068;-76
2022/02/11 05:24:38;;;;;;;15.05;7.35;;;8.70;99.90;;;;;;5036021;28;20048;-76
2022/02/11 05:27:04;;;;;;;12.68;6.47;;;8.80;99.90;;;;;;5035285;28;20508;-77
2022/02/11 05:29:30;;;;;;;21.75;7.53;;;8.70;99.90;;;;;;5044989;28;20044;-76
2022/02/11 05:31:56;;;;;;;18.63;8.05;;;8.80;99.90;;;;;;5054624;28;20474;-74
2022/02/11 05:34:22;;;;;;;16.55;8.13;;;;;;;;;;5054206;28;20053;-76
2022/02/11 05:36:48;;;;;;;17.77;7.97;;;8.50;99.90;;;;;;5052398;28;20052;-75
2022/02/11 05:39:14;;;;;;;13.68;7.45;;;8.60;99.90;;;;;;5055108;28;20041;-76
2022/02/11 05:41:39;;;;;;;17.13;7.85;;;8.60;99.90;;;;;;5055204;28;20040;-76
2022/02/11 05:44:05;;;;;;;17.17;8.02;;;8.50;99.90;;;;;;5055150;28;20056;-75
2022/02/11 05:46:31;;;;;;;20.65;8.57;;;8.50;99.90;;;;;;5055109;28;20044;-75
2022/02/11 05:48:59;;;;;;;25.33;9.13;;;8.60;99.90;;;;;;5054834;28;20092;-75
2022/02/11 05:51:24;;;;;;;19.02;9.25;;;8.60;99.90;;;;;;5054451;28;20060;-75
2022/02/11 05:53:50;;;;;;;15.45;8.95;;;8.50;99.90;;;;;;5052156;28;20126;-76
2022/02/11 05:56:16;;;;;;;18.70;9.32;;;8.40;99.90;;;;;;5034643;28;20569;-75
2022/02/11 05:58:42;;;;;;;16.30;9.55;;;8.40;99.90;;;;;;5034717;28;20042;-76
2022/02/11 06:01:09;;;;;;;21.23;10.70;;;8.50;99.90;;;;;;5034857;28;20570;-75
2022/02/11 06:03:35;;;;;;;21.75;10.68;;;8.60;99.90;;;;;;5034407;28;20045;-75
2022/02/11 06:06:01;;;;;;;19.60;10.43;;;;;;;;;;5034555;28;20044;-75
2022/02/11 06:08:27;;;;;;;26.20;11.27;;;8.40;99.90;;;;;;5034892;28;20072;-75
2022/02/11 06:10:53;;;;;;;20.83;11.93;;;8.60;99.90;;;;;;5035117;28;20068;-75
2022/02/11 06:13:19;;;;;;;22.00;12.35;;;8.50;99.90;;;;;;5034817;28;20045;-75
2022/02/11 06:15:46;;;;;;;19.05;12.65;;;8.60;99.90;;;;;;5034868;28;20056;-75
2022/02/11 06:18:12;;;;;;;25.92;14.35;;;8.70;99.90;;;;;;5034826;28;20056;-75
2022/02/11 06:20:37;;;;;;;22.92;14.45;;;8.60;99.90;;;;;;5034844;28;20067;-74
2022/02/11 06:23:04;;;;;;;25.95;14.60;;;8.60;99.90;;;;;;5034709;28;20045;-75
2022/02/11 06:25:30;;;;;;;22.88;15.52;;;8.70;99.90;;;;;;5034692;28;20538;-74
2022/02/11 06:27:58;;;;;;;25.80;16.33;;;8.50;99.90;;;;;;5034537;28;20042;-75
2022/02/11 06:30:25;;;;;;;26.30;15.80;;;8.50;99.90;;;;;;5033967;28;20041;-75
2022/02/11 06:32:52;;;;;;;24.90;15.93;;;8.50;97.60;;;;;;5034121;28;20041;-75
2022/02/11 06:35:17;;;;;;;31.48;16.42;;;8.50;99.40;;;;;;5034426;28;20039;-75
2022/02/11 06:37:45;;;;;;;26.23;17.35;;;8.40;99.90;;;;;;5034131;28;20045;-75
2022/02/11 06:40:12;;;;;;;28.33;16.95;;;8.50;99.90;;;;;;5033248;28;20068;-75
2022/02/11 06:42:38;;;;;;;28.35;16.27;;;8.40;99.90;;;;;;5034278;28;20087;-75
2022/02/11 06:45:05;;;;;;;32.78;16.35;;;8.40;99.90;;;;;;5034033;28;20037;-75
2022/02/11 06:47:32;;;;;;;29.73;17.05;;;;;;;;;;5039908;28;20044;-76
2022/02/11 06:49:58;;;;;;;26.42;16.52;;;8.40;99.90;;;;;;5050746;28;20047;-76
2022/02/11 06:52:23;;;;;;;26.42;16.02;;;8.20;99.90;;;;;;5054282;28;20041;-76
2022/02/11 06:54:49;;;;;;;28.92;17.23;;;8.10;99.90;;;;;;5054248;28;20040;-76
2022/02/11 06:57:15;;;;;;;31.10;16.80;;;8.30;99.90;;;;;;5051091;28;20924;-76
2022/02/11 06:59:41;;;;;;;29.00;17.15;;;8.40;99.90;;;;;;5033966;28;20076;-75
2022/02/11 07:02:15;;;;;;;28.67;18.23;;;8.40;99.90;;;;;;5034440;28;20041;-76
2022/02/11 07:04:41;;;;;;;29.35;17.88;;;8.30;99.90;;;;;;5033900;28;20033;-75
2022/02/11 07:07:07;;;;;;;29.20;16.20;;;8.40;99.90;;;;;;5034290;28;20071;-74
2022/02/11 07:09:33;;;;;;;28.77;16.42;;;8.50;99.90;;;;;;5033834;28;20065;-74
2022/02/11 07:11:59;;;;;;;21.92;15.77;;;8.40;99.90;;;;;;5034502;28;20041;-74
2022/02/11 07:14:24;;;;;;;23.80;16.65;;;8.60;99.90;;;;;;5016826;28;20128;-74
2022/02/11 07:16:50;;;;;;;29.38;14.93;;;8.50;99.90;;;;;;5033667;28;20037;-74
2022/02/11 07:19:16;;;;;;;23.38;15.52;;;8.60;99.90;;;;;;5032218;28;20037;-74
2022/02/11 07:21:42;;;;;;;23.60;16.23;;;8.60;99.90;;;;;;5033169;28;20553;-74
2022/02/11 07:24:08;;;;;;;24.65;16.10;;;8.60;99.90;;;;;;5032976;28;20049;-74
2022/02/11 07:26:34;;;;;;;24.48;15.10;;;8.60;99.90;;;;;;5033174;28;20049;-74
2022/02/11 07:28:59;;;;;;;17.92;12.80;;;8.60;99.90;;;;;;5032978;28;20404;-74
2022/02/11 07:31:26;;;;;;;21.75;14.73;;;8.60;99.90;;;;;;5031544;28;20041;-74
2022/02/11 07:33:52;;;;;;;18.38;12.73;;;8.60;99.90;;;;;;5038722;28;20370;-74
2022/02/11 07:36:18;;;;;;;18.90;12.43;;;8.50;99.90;;;;;;5050548;28;20044;-74
2022/02/11 07:38:44;;;;;;;22.48;13.38;;;8.70;99.90;;;;;;5053786;28;20122;-74
2022/02/11 07:41:12;;;;;;;18.85;12.05;;;8.60;99.90;;;;;;5053919;28;20037;-74
2022/02/11 07:43:39;;;;;;;19.17;11.45;;;8.70;99.90;;;;;;5053615;28;20119;-74
2022/02/11 07:46:05;;;;;;;12.50;10.18;;;9.00;99.90;;;;;;5052851;28;20583;-74
2022/02/11 07:48:31;;;;;;;15.48;11.98;;;9.10;99.90;;;;;;5051635;28;20037;-74
2022/02/11 07:50:57;;;;;;;11.73;9.80;;;9.10;99.90;;;;;;5052604;28;20044;-74
2022/02/11 07:53:23;;;;;;;14.38;10.27;;;9.10;99.90;;;;;;5057265;28;20072;-74
2022/02/11 07:55:50;;;;;;;14.02;10.23;;;9.20;99.90;;;;;;5057375;28;20032;-74
2022/02/11 07:58:16;;;;;;;18.33;12.25;;;9.20;99.90;;;;;;5057367;28;20178;-74
2022/02/11 08:00:42;;;;;;;19.15;11.73;;;9.20;99.90;;;;;;5056847;28;20067;-74
2022/02/11 08:03:08;;;;;;;20.67;13.13;;;9.20;99.90;;;;;;5056994;28;20044;-74
2022/02/11 08:05:33;;;;;;;15.20;11.70;;;9.10;99.90;;;;;;5057091;28;20040;-74
2022/02/11 08:07:59;;;;;;;20.83;14.73;;;9.20;99.90;;;;;;5056985;28;20041;-74
2022/02/11 08:10:25;;;;;;;22.98;14.10;;;9.20;99.90;;;;;;5057390;28;20033;-74
2022/02/11 08:12:51;;;;;;;20.20;14.23;;;9.20;99.90;;;;;;5057179;28;20098;-74
2022/02/11 08:15:17;;;;;;;18.02;13.43;;;9.20;99.90;;;;;;5057235;28;20033;-72
2022/02/11 08:17:43;;;;;;;22.33;14.13;;;9.30;99.90;;;;;;5057128;28;20040;-76
2022/02/11 08:20:10;;;;;;;24.25;14.93;;;9.30;99.90;;;;;;5056830;28;20472;-73
2022/02/11 08:22:35;;;;;;;21.27;14.25;;;9.40;99.90;;;;;;5056585;28;20069;-73
2022/02/11 08:25:01;;;;;;;24.10;14.43;;;9.30;99.90;;;;;;5055420;28;20079;-73
2022/02/11 08:27:29;;;;;;;21.30;13.65;;;9.30;99.90;;;;;;5054796;28;20041;-73
2022/02/11 08:29:55;;;;;;;20.10;13.82;;;9.40;99.90;;;;;;5055055;28;20041;-72
2022/02/11 08:32:22;;;;;;;20.67;13.90;;;9.30;99.90;;;;;;5054659;28;20061;-73
2022/02/11 08:34:49;;;;;;;17.98;12.63;;;9.30;99.90;;;;;;5054929;28;20033;-73
2022/02/11 08:37:15;;;;;;;17.33;12.70;;;9.30;99.90;;;;;;5055940;28;20071;-73
2022/02/11 08:39:44;;;;;;;17.75;12.93;;;;;;;;;;5056407;28;20033;-73
2022/02/11 08:42:10;;;;;;;20.10;13.25;;;;;;;;;;5056204;28;20128;-73
2022/02/11 08:44:36;;;;;;;19.65;13.38;;;9.30;99.90;;;;;;5056267;28;20036;-73
2022/02/11 08:47:03;;;;;;;18.27;12.95;;;;;;;;;;5056579;28;20037;-72
2022/02/11 08:49:30;;;;;;;19.70;14.00;;;9.30;99.90;;;;;;5056153;28;20123;-73
2022/02/11 08:51:55;;;;;;;15.73;12.18;;;9.50;99.90;;;;;;5056500;28;20041;-72
2022/02/11 08:54:22;;;;;;;14.70;11.57;;;;;;;;;;5056329;28;20044;-72
2022/02/11 08:56:48;;;;;;;17.15;11.65;;;9.50;99.90;;;;;;5055401;28;20139;-73
2022/02/11 08:59:14;;;;;;;15.60;11.45;;;9.70;99.90;;;;;;5055026;28;20033;-73
2022/02/11 09:01:40;;;;;;;11.43;8.98;;;9.80;99.90;;;;;;5055113;28;20045;-73
2022/02/11 09:04:07;;;;;;;11.43;9.75;;;9.90;99.90;;;;;;5055204;28;20043;-73
2022/02/11 09:06:34;;;;;;;13.18;10.00;;;10.00;99.90;;;;;;5055590;28;20395;-73
2022/02/11 09:09:00;;;;;;;14.48;9.68;;;10.30;99.90;;;;;;5055287;28;20133;-73
2022/02/11 09:11:25;;;;;;;13.35;10.30;;;10.30;99.90;;;;;;5055953;28;20045;-73
2022/02/11 09:13:52;;;;;;;16.17;10.65;;;10.30;99.90;;;;;;5056065;28;20041;-73
2022/02/11 09:16:18;;;;;;;14.18;10.30;;;10.00;99.90;;;;;;5056348;28;20045;-73
2022/02/11 09:18:44;;;;;;;15.82;11.07;;;10.00;99.90;;;;;;5055143;28;20407;-73
2022/02/11 09:21:10;;;;;;;14.82;10.65;;;9.90;99.90;;;;;;5056237;28;20041;-73
2022/02/11 09:23:36;;;;;;;11.48;9.63;;;10.00;99.90;;;;;;5055811;28;20039;-73
2022/02/11 09:26:03;;;;;;;13.75;10.35;;;10.00;99.90;;;;;;5055789;28;20040;-73
2022/02/11 09:28:29;;;;;;;12.90;9.48;;;10.00;99.90;;;;;;5055724;28;20098;-73
2022/02/11 09:30:55;;;;;;;12.40;9.68;;;10.00;99.90;;;;;;5054823;28;20068;-73
2022/02/11 09:33:21;;;;;;;10.82;8.57;;;10.00;99.90;;;;;;5054687;28;20049;-72
2022/02/11 09:35:49;;;;;;;12.75;7.80;;;10.00;99.90;;;;;;5052956;28;20391;-73
2022/02/11 09:38:18;;;;;;;9.90;6.88;;;10.20;99.90;;;;;;5054092;28;20128;-73
2022/02/11 09:40:50;;;;;;;8.50;6.95;;;10.20;99.90;;;;;;5053386;28;20131;-73
2022/02/11 09:43:17;;;;;;;12.10;7.40;;;10.50;99.90;;;;;;5053909;28;20045;-73
2022/02/11 09:45:44;;;;;;;12.63;7.88;;;10.50;99.90;;;;;;5054134;28;20033;-73
2022/02/11 09:48:11;;;;;;;7.50;6.13;;;10.50;99.90;;;;;;5054635;28;20037;-75
2022/02/11 09:50:37;;;;;;;8.35;6.30;;;10.50;99.90;;;;;;5054030;28;20036;-73
2022/02/11 09:53:03;;;;;;;8.98;7.07;;;10.50;99.90;;;;;;5054483;28;20579;-73
2022/02/11 09:55:32;;;;;;;9.00;7.10;;;10.60;99.90;;;;;;5054351;28;20068;-73
2022/02/11 09:58:08;;;;;;;6.97;6.28;;;10.80;99.90;;;;;;5055190;28;20048;-73
2022/02/11 10:00:38;;;;;;;9.48;6.45;;;11.50;99.90;;;;;;5055122;28;20044;-73
2022/02/11 10:03:14;;;;;;;9.07;6.25;;;11.90;99.90;;;;;;5054456;28;20059;-74
2022/02/11 10:05:40;;;;;;;8.73;5.93;;;12.20;99.90;;;;;;5054364;28;20075;-74
2022/02/11 10:08:06;;;;;;;6.95;6.10;;;12.20;98.00;;;;;;5054356;28;20072;-74
2022/02/11 10:13:19;;;;;;;8.20;5.95;;;12.30;96.40;;;;;;5053861;28;20063;-73
2022/02/11 10:15:51;;;;;;;8.40;5.85;;;12.40;97.60;;;;;;5053868;28;20048;-74
2022/02/11 10:18:25;;;;;;;7.35;5.70;;;12.40;96.30;;;;;;5054401;28;20535;-74
2022/02/11 10:20:53;;;;;;;8.93;5.65;;;12.50;95.60;;;;;;5053621;28;20045;-74
2022/02/11 10:23:25;;;;;;;7.32;5.30;;;12.50;95.50;;;;;;5052970;28;20040;-73
2022/02/11 10:25:55;;;;;;;7.35;5.15;;;12.30;96.20;;;;;;5053948;28;20045;-73
2022/02/11 10:28:25;;;;;;;7.13;4.60;;;12.50;96.00;;;;;;5054207;28;20045;-73
2022/02/11 10:31:11;;;;;;;6.65;4.57;;;12.50;95.30;;;;;;5053958;28;20037;-73
2022/02/11 10:34:03;;;;;;;7.80;3.78;;;12.30;98.90;;;;;;5053436;28;20071;-73
2022/02/11 10:36:49;;;;;;;7.43;4.38;;;12.60;99.90;;;;;;5054469;28;20079;-73
2022/02/11 10:39:16;;;;;;;10.38;5.22;;;12.50;94.50;;;;;;5054722;28;20053;-73
2022/02/11 10:41:49;;;;;;;7.70;5.43;;;12.30;94.40;;;;;;5054928;28;20037;-73
2022/02/11 10:44:17;;;;;;;5.18;3.83;;;12.60;95.00;;;;;;5053996;28;20116;-73
2022/02/11 10:46:51;;;;;;;8.05;5.80;;;12.60;93.80;;;;;;5054609;28;20041;-73
2022/02/11 10:49:18;;;;;;;9.40;5.93;;;12.30;94.90;;;;;;5054363;28;20095;-73
2022/02/11 10:51:47;;;;;;;10.30;6.00;;;12.20;95.70;;;;;;5054490;28;20127;-73
2022/02/11 10:54:33;;;;;;;11.07;6.32;;;12.20;97.00;;;;;;5054260;28;20047;-73
2022/02/11 10:57:01;;;;;;;5.65;4.30;;;12.10;97.10;;;;;;5054583;28;20114;-72
2022/02/11 10:59:30;;;;;;;9.20;5.10;;;12.00;97.30;;;;;;5037836;28;20045;-73
2022/02/11 11:01:58;;;;;;;7.80;5.90;;;11.90;97.90;;;;;;5033772;28;20043;-73
2022/02/11 11:04:25;;;;;;;7.28;4.80;;;11.80;90.80;;;;;;5033728;28;20079;-74
2022/02/11 11:06:51;;;;;;;8.20;4.13;;;12.00;90.80;;;;;;5015491;28;20048;-73
2022/02/11 11:09:18;;;;;;;4.93;3.72;;;12.10;90.70;;;;;;5033323;28;20068;-73
2022/02/11 11:11:48;;;;;;;4.07;3.00;;;12.20;89.90;;;;;;5033015;28;20034;-73
2022/02/11 11:14:16;;;;;;;7.10;3.55;;;12.20;89.80;;;;;;5033978;28;20041;-74
2022/02/11 11:16:45;;;;;;;8.23;5.05;;;12.40;90.40;;;;;;5032995;28;20037;-74
2022/02/11 11:19:11;;;;;;;7.60;4.97;;;12.40;91.00;;;;;;5033700;28;20042;-74
2022/02/11 11:21:43;;;;;;;5.90;3.75;;;12.40;91.10;;;;;;5057014;28;20032;-73
2022/02/11 11:24:09;;;;;;;7.03;4.38;;;12.30;91.60;;;;;;5072814;28;20033;-72
2022/02/11 11:26:45;;;;;;;7.60;5.03;;;12.50;92.20;;;;;;5076582;28;20506;-72
2022/02/11 11:29:20;;;;;;;8.00;5.25;;;;;;;;;;5076606;28;20491;-72
2022/02/11 11:31:57;;;;;;;7.07;4.30;;;;;;;;;;5076718;28;20124;-73
2022/02/11 11:34:25;;;;;;;5.70;3.70;;;;;;;;;;5076646;28;20051;-72
2022/02/11 11:36:53;;;;;;;8.45;3.75;;;12.60;99.90;;;;;;5077056;28;20834;-72
2022/02/11 11:39:20;;;;;;;7.40;4.70;;;12.50;99.90;;;;;;5076596;28;20043;-73
2022/02/11 11:42:17;;;;;;;8.48;4.28;;;12.80;99.90;;;;;;5075737;28;20097;-74
2022/02/11 11:44:46;;;;;;;5.93;4.05;;;13.00;99.90;;;;;;5075956;28;20036;-73
2022/02/11 11:47:27;;;;;;;5.35;3.90;;;12.90;99.60;;;;;;5075764;28;20040;-72
2022/02/11 11:49:54;;;;;;;17.77;4.40;;;;;;;;;;5076451;28;20120;-72
2022/02/11 11:52:22;;;;;;;7.70;3.25;;;12.90;99.90;;;;;;5076954;28;20127;-72
2022/02/11 11:54:49;;;;;;;5.93;3.08;;;;;;;;;;5077322;28;20044;-72
2022/02/11 11:57:19;;;;;;;7.85;3.60;;;;;;;;;;5077156;28;20048;-72
2022/02/11 11:59:49;;;;;;;6.80;3.60;;;;;;;;;;5077641;28;20049;-72
2022/02/11 12:02:19;;;;;;;10.15;3.72;;;12.50;99.90;;;;;;5076788;28;20048;-73
2022/02/11 12:04:45;;;;;;;8.60;4.68;;;;;;;;;;5076982;28;20120;-72
2022/02/11 12:07:13;;;;;;;8.35;4.32;;;13.00;99.90;;;;;;5077259;28;20094;-75
2022/02/11 12:09:42;;;;;;;8.90;4.68;;;13.00;99.50;;;;;;5077470;28;20068;-72
2022/02/11 12:12:09;;;;;;;7.40;4.70;;;;;;;;;;5077337;28;20068;-72
2022/02/11 12:14:37;;;;;;;8.80;4.55;;;;;;;;;;5077131;28;20119;-71
2022/02/11 12:17:05;;;;;;;10.30;5.53;;;;;;;;;;5077061;28;20135;-74
2022/02/11 12:19:32;;;;;;;9.45;5.15;;;;;;;;;;5077195;28;20048;-71
2022/02/11 12:21:58;;;;;;;11.70;5.15;;;;;;;;;;5077089;28;20067;-73
2022/02/11 12:27:22;;;;;;;11.05;4.78;;;12.30;99.90;;;;;;5045473;28;20047;-73
2022/02/11 12:29:57;;;;;;;9.60;4.95;;;12.40;99.90;;;;;;5056191;28;20029;-73
2022/02/11 12:32:27;;;;;;;8.60;4.60;;;;;;;;;;5056507;28;20056;-73
2022/02/11 12:34:55;;;;;;;13.25;5.90;;;;;;;;;;5053888;28;20045;-73
2022/02/11 12:37:22;;;;;;;11.23;5.88;;;;;;;;;;5053609;28;20102;-73
2022/02/11 12:39:49;;;;;;;7.20;4.60;;;;;;;;;;5055279;28;20125;-72
2022/02/11 12:42:19;;;;;;;10.73;5.10;;;;;;;;;;5055348;28;20048;-72
2022/02/11 12:44:46;;;;;;;9.40;4.03;;;;;;;;;;5055781;28;20063;-72
2022/02/11 12:47:13;;;;;;;7.43;4.18;;;;;;;;;;5046494;28;20041;-72
2022/02/11 12:49:51;;;;;;;9.65;4.88;;;;;;;;;;5044193;28;20142;-72
2022/02/11 12:52:21;;;;;;;11.63;4.80;;;;;;;;;;5071270;28;20097;-72
2022/02/11 12:55:00;;;;;;;9.65;4.88;;;;;;;;;;5075114;28;20062;-72
2022/02/11 12:57:27;;;;;;;7.88;4.57;;;;;;;;;;5073480;28;20041;-72
2022/02/11 12:59:54;;;;;;;9.38;5.43;;;;;;;;;;5074428;28;20044;-73
2022/02/11 13:02:30;;;;;;;8.55;4.90;;;;;;;;;;5075220;28;20131;-72
2022/02/11 13:05:03;;;;;;;8.95;5.18;;;;;;;;;;5075113;28;20043;-72
2022/02/11 13:07:30;;;;;;;9.52;4.30;;;;;;;;;;5073958;28;20044;-72
2022/02/11 13:09:56;;;;;;;5.28;3.67;;;;;;;;;;5073733;28;20430;-72
2022/02/11 13:12:23;;;;;;;4.45;2.72;;;;;;;;;;5074346;28;20403;-72
2022/02/11 13:14:50;;;;;;;7.50;4.30;;;;;;;;;;5075206;28;20131;-72
2022/02/11 13:17:17;;;;;;;8.73;4.65;;;;;;;;;;5074855;28;20045;-73
2022/02/11 13:19:49;;;;;;;6.75;3.88;;;;;;;;;;5072449;28;20048;-73
2022/02/11 13:22:18;;;;;;;10.85;4.38;;;;;;;;;;5072929;28;20040;-73
2022/02/11 13:24:45;;;;;;;7.95;4.55;;;;;;;;;;5072208;28;20033;-73
2022/02/11 13:27:12;;;;;;;13.00;5.15;;;;;;;;;;5072707;28;20099;-73
2022/02/11 13:29:39;;;;;;;13.20;5.07;;;;;;;;;;5072183;28;20052;-73
2022/02/11 13:32:06;;;;;;;9.43;4.65;;;;;;;;;;5072216;28;20052;-73
2022/02/11 13:34:33;;;;;;;4.97;3.50;;;;;;;;;;5072891;28;20119;-73
2022/02/11 13:37:06;;;;;;;10.68;5.40;;;;;;;;;;5055697;28;20450;-73
2022/02/11 13:39:32;;;;;;;9.85;4.10;;;12.00;99.90;;;;;;5073791;28;20044;-73
2022/02/11 13:42:11;;;;;;;8.30;3.58;;;11.90;99.90;;;;;;5074314;28;20032;-73
2022/02/11 13:44:37;;;;;;;11.02;3.33;;;;;;;;;;5075456;28;20040;-73
2022/02/11 13:47:03;;;;;;;6.93;3.22;;;11.90;99.90;;;;;;5074946;28;20135;-74
2022/02/11 13:49:38;;;;;;;6.30;3.28;;;12.00;99.90;;;;;;5074717;28;20051;-73
2022/02/11 13:55:01;;;;;;;7.25;3.63;;;12.10;99.90;;;;;;5073892;28;20039;-73
2022/02/11 13:57:27;;;;;;;9.23;3.30;;;12.20;99.90;;;;;;5073775;28;20067;-74
2022/02/11 13:59:54;;;;;;;8.20;3.40;;;;;;;;;;5074318;28;20117;-73
2022/02/11 14:02:21;;;;;;;5.82;2.90;;;12.20;99.90;;;;;;5075083;28;20044;-73
2022/02/11 14:04:47;;;;;;;7.60;3.40;;;;;;;;;;5074724;28;20031;-73
2022/02/11 14:07:14;;;;;;;6.18;3.35;;;;;;;;;;5074913;28;20132;-73
2022/02/11 14:09:41;;;;;;;9.13;3.15;;;;;;;;;;5075397;28;20040;-72
2022/02/11 14:12:27;;;;;;;9.07;2.80;;;;;;;;;;5074374;28;20056;-72
2022/02/11 14:14:58;;;;;;;7.25;3.30;;;12.10;99.90;;;;;;5074777;28;20047;-72
2022/02/11 14:17:27;;;;;;;7.15;3.40;;;;;;;;;;5074230;28;20360;-73
2022/02/11 14:19:53;;;;;;;13.43;4.07;;;;;;;;;;5074135;28;20083;-73
2022/02/11 14:22:20;;;;;;;13.65;5.03;;;;;;;;;;5073863;28;20090;-73
2022/02/11 14:24:46;;;;;;;10.70;3.92;;;;;;;;;;5072923;28;20115;-73
2022/02/11 14:27:12;;;;;;;6.22;3.28;;;11.90;99.10;;;;;;5072601;28;20075;-74
2022/02/11 14:29:38;;;;;;;8.55;3.33;;;11.90;99.90;;;;;;5072735;28;20490;-72
2022/02/11 14:32:05;;;;;;;8.73;3.50;;;12.10;99.80;;;;;;5073679;28;20024;-76
2022/02/11 14:34:31;;;;;;;11.45;4.10;;;12.00;99.90;;;;;;5055569;28;20049;-73
2022/02/11 14:36:57;;;;;;;6.80;2.80;;;12.00;99.90;;;;;;5073390;28;20198;-73
2022/02/11 14:39:23;;;;;;;8.90;3.20;;;11.90;98.80;;;;;;5072317;28;20127;-73
2022/02/11 14:41:51;;;;;;;12.18;3.50;;;11.90;99.90;;;;;;5072471;28;20131;-73
2022/02/11 14:44:24;;;;;;;9.30;3.65;;;11.80;99.60;;;;;;5072992;28;20041;-73
2022/02/11 14:46:54;;;;;;;9.27;3.55;;;11.80;99.60;;;;;;5073058;28;20045;-73
2022/02/11 14:49:20;;;;;;;10.57;3.78;;;11.70;99.80;;;;;;5052977;28;20040;-74
2022/02/11 14:51:54;;;;;;;7.28;3.40;;;11.60;99.90;;;;;;5050557;28;20111;-74
2022/02/11 14:54:20;;;;;;;8.63;3.38;;;11.70;99.70;;;;;;5051558;28;20033;-73
2022/02/11 14:56:48;;;;;;;7.90;3.60;;;11.80;99.70;;;;;;5051798;28;20047;-73
2022/02/11 14:59:15;;;;;;;8.77;3.35;;;11.80;99.40;;;;;;5052024;28;20041;-73
2022/02/11 15:01:42;;;;;;;8.82;3.45;;;11.90;99.60;;;;;;5056846;28;20040;-73
2022/02/11 15:04:09;;;;;;;5.43;2.75;;;11.90;99.20;;;;;;5057468;28;20045;-73
2022/02/11 15:06:36;;;;;;;7.30;3.33;;;11.90;98.70;;;;;;5057581;28;20049;-76
2022/02/11 15:09:03;;;;;;;5.68;3.22;;;11.90;99.90;;;;;;5051507;28;20117;-74
2022/02/11 15:11:29;;;;;;;8.48;3.33;;;11.80;99.10;;;;;;5035370;28;20486;-74
2022/02/11 15:13:55;;;;;;;4.40;2.72;;;11.80;99.30;;;;;;5037800;28;20037;-74
2022/02/11 15:16:21;;;;;;;6.82;3.85;;;11.80;98.80;;;;;;5037301;28;20051;-75
2022/02/11 15:18:47;;;;;;;7.43;3.53;;;11.70;99.90;;;;;;5035998;28;20148;-74
2022/02/11 15:21:14;;;;;;;5.57;3.03;;;11.70;99.00;;;;;;5037981;28;20073;-74
2022/02/11 15:23:40;;;;;;;6.13;2.95;;;11.70;98.70;;;;;;5037811;28;20108;-74
2022/02/11 15:26:08;;;;;;;5.97;3.00;;;11.70;98.60;;;;;;5037474;28;20052;-74
2022/02/11 15:28:39;;;;;;;5.82;2.63;;;11.70;98.70;;;;;;5037852;28;20037;-74
2022/02/11 15:31:08;;;;;;;3.90;2.35;;;11.60;98.60;;;;;;5049627;28;20071;-74
2022/02/11 15:33:34;;;;;;;5.90;2.63;;;11.50;98.40;;;;;;5056793;28;20052;-73
2022/02/11 15:36:00;;;;;;;3.92;2.72;;;11.50;98.90;;;;;;5055775;28;20159;-73
2022/02/11 15:38:26;;;;;;;9.60;3.08;;;11.40;99.00;;;;;;5055747;28;20033;-73
2022/02/11 15:40:52;;;;;;;5.65;2.60;;;11.40;99.70;;;;;;5057079;28;20044;-73
2022/02/11 15:43:18;;;;;;;4.80;2.42;;;;;;;;;;5057254;28;20118;-73
2022/02/11 15:45:44;;;;;;;3.20;2.40;;;11.30;98.10;;;;;;5057696;28;20124;-73
2022/02/11 15:48:12;;;;;;;4.63;2.35;;;11.40;99.40;;;;;;5057832;28;20080;-73
2022/02/11 15:50:41;;;;;;;6.28;2.97;;;11.30;99.50;;;;;;5053091;28;20048;-74
2022/02/11 15:53:10;;;;;;;4.97;2.55;;;11.30;99.90;;;;;;5067258;28;20025;-74
2022/02/11 15:55:37;;;;;;;6.40;2.20;;;;;;;;;;5057056;28;20600;-73
2022/02/11 15:58:03;;;;;;;3.33;2.33;;;11.40;99.10;;;;;;5057021;28;20037;-74
2022/02/11 16:00:29;;;;;;;6.28;2.95;;;;;;;;;;5056828;28;20040;-74
2022/02/11 16:02:56;;;;;;;5.63;3.00;;;;;;;;;;5056867;28;20040;-73
2022/02/11 16:05:24;;;;;;;3.65;2.38;;;;;;;;;;5056801;28;20119;-74
2022/02/11 16:07:54;;;;;;;5.00;2.92;;;10.90;99.90;;;;;;5056414;28;20041;-74
2022/02/11 16:10:21;;;;;;;5.68;3.33;;;;;;;;;;5056917;28;20040;-73
2022/02/11 16:12:48;;;;;;;8.00;3.25;;;;;;;;;;5054372;28;20123;-73
2022/02/11 16:15:16;;;;;;;4.07;2.70;;;;;;;;;;5056841;28;20116;-73
2022/02/11 16:18:05;;;;;;;3.55;2.65;;;;;;;;;;5057049;28;20133;-73
2022/02/11 16:20:39;;;;;;;4.72;2.13;;;;;;;;;;5056789;28;20047;-76
2022/02/11 16:23:06;;;;;;;7.28;3.03;;;;;;;;;;5055794;28;20041;-73
2022/02/11 16:25:35;;;;;;;6.18;3.10;;;;;;;;;;5056547;28;20072;-74
2022/02/11 16:28:03;;;;;;;3.20;2.85;;;;;;;;;;5055164;28;20036;-74
2022/02/11 16:30:30;;;;;;;4.95;2.67;;;;;;;;;;5054447;28;20131;-74
2022/02/11 16:32:57;;;;;;;4.85;2.30;;;;;;;;;;5053488;28;20136;-74
2022/02/11 16:35:24;;;;;;;3.63;2.40;;;;;;;;;;5054029;28;20040;-74
2022/02/11 16:37:51;;;;;;;6.38;3.05;;;;;;;;;;5055254;28;20550;-74
2022/02/11 16:40:17;;;;;;;4.85;2.17;;;;;;;;;;5056064;28;20103;-74
2022/02/11 16:42:45;;;;;;;4.07;2.30;;;;;;;;;;5056707;28;20037;-76
2022/02/11 16:45:49;;;;;;;10.40;3.33;;;;;;;;;;5056456;28;20048;-73
2022/02/11 16:48:16;;;;;;;7.18;3.85;;;;;;;;;;5013755;28;20057;-73
2022/02/11 16:50:43;;;;;;;6.28;3.70;;;;;;;;;;5047445;28;20072;-73
2022/02/11 16:53:10;;;;;;;8.18;4.10;;;;;;;;;;5055930;28;20040;-73
2022/02/11 16:55:37;;;;;;;9.98;4.60;;;;;;;;;;5056171;28;20064;-74
2022/02/11 16:58:04;;;;;;;8.70;4.60;;;;;;;;;;5056271;28;20131;-73
2022/02/11 17:00:30;;;;;;;8.60;3.95;;;;;;;;;;5056713;28;20151;-74
2022/02/11 17:02:57;;;;;;;8.73;3.70;;;;;;;;;;5055250;28;20555;-73
2022/02/11 17:05:24;;;;;;;8.80;5.28;;;;;;;;;;5055077;28;20491;-73
2022/02/11 17:07:51;;;;;;;6.47;4.70;;;;;;;;;;5056234;28;20100;-73
2022/02/11 17:10:18;;;;;;;12.55;5.93;;;;;;;;;;5056737;28;20111;-74
2022/02/11 17:12:45;;;;;;;11.50;6.13;;;;;;;;;;5055826;28;20563;-73
2022/02/11 17:15:11;;;;;;;10.02;5.65;;;;;;;;;;5055825;28;20116;-73